createdAt,value
2024-02-18T00:04:29.501Z,7.92
2024-02-18T00:09:32.860Z,7.93
2024-02-18T00:14:37.572Z,7.98
2024-02-18T00:19:40.986Z,7.99
2024-02-18T00:24:44.366Z,7.97
2024-02-18T00:29:48.968Z,7.98
2024-02-18T00:34:52.249Z,7.99
2024-02-18T00:39:55.498Z,7.98
2024-02-18T00:45:00.261Z,7.97
2024-02-18T00:50:03.606Z,7.93
2024-02-18T00:55:08.342Z,7.91
2024-02-18T01:00:14.231Z,7.89
2024-02-18T01:05:17.403Z,7.89
2024-02-18T01:10:20.843Z,7.86
2024-02-18T01:15:25.483Z,7.84
2024-02-18T01:20:28.966Z,7.79
2024-02-18T01:25:32.638Z,7.70
2024-02-18T01:30:37.416Z,7.62
2024-02-18T01:35:40.856Z,7.53
2024-02-18T01:40:44.130Z,7.44
2024-02-18T01:45:49.317Z,7.31
2024-02-18T01:50:52.870Z,7.13
2024-02-18T01:55:57.251Z,7.03
2024-02-18T02:01:02.810Z,6.90
2024-02-18T02:06:08.016Z,6.85
2024-02-18T02:11:11.585Z,6.86
2024-02-18T02:16:16.775Z,6.86
2024-02-18T02:21:20.878Z,6.86
2024-02-18T02:26:26.430Z,6.79
2024-02-18T02:31:31.257Z,6.81
2024-02-18T02:36:34.606Z,6.86
2024-02-18T02:41:38.854Z,6.85
2024-02-18T02:46:43.550Z,6.86
2024-02-18T02:51:46.895Z,6.92
2024-02-18T02:56:50.344Z,6.90
2024-02-18T03:01:55.035Z,6.88
2024-02-18T03:06:58.453Z,6.79
2024-02-18T03:12:01.844Z,6.71
2024-02-18T03:17:06.653Z,6.59
2024-02-18T03:22:09.954Z,6.50
2024-02-18T03:27:13.458Z,6.41
2024-02-18T03:32:18.095Z,6.27
2024-02-18T03:37:21.334Z,6.20
2024-02-18T03:42:24.611Z,6.15
2024-02-18T03:47:29.302Z,6.10
2024-02-18T03:52:32.798Z,6.08
2024-02-18T03:57:36.075Z,6.01
2024-02-18T04:02:42.317Z,5.90
2024-02-18T04:07:45.535Z,5.83
2024-02-18T04:12:49.141Z,5.76
2024-02-18T04:17:55.286Z,5.64
2024-02-18T04:22:58.513Z,5.51
2024-02-18T04:28:02.916Z,5.43
2024-02-18T04:33:07.855Z,5.34
2024-02-18T04:38:11.120Z,5.28
2024-02-18T04:43:14.303Z,5.22
2024-02-18T04:48:18.976Z,5.16
2024-02-18T04:53:22.380Z,5.18
2024-02-18T04:58:25.721Z,5.18
2024-02-18T05:03:30.531Z,5.19
2024-02-18T05:08:34.146Z,5.19
2024-02-18T05:13:37.617Z,5.15
2024-02-18T05:18:42.760Z,5.11
2024-02-18T05:23:46.355Z,5.08
2024-02-18T05:28:49.605Z,4.99
2024-02-18T05:33:55.137Z,4.94
2024-02-18T05:38:58.633Z,4.87
2024-02-18T05:44:01.937Z,4.78
2024-02-18T05:49:07.069Z,4.70
2024-02-18T05:54:10.427Z,4.59
2024-02-18T05:59:13.736Z,4.54
2024-02-18T06:04:18.447Z,4.54
2024-02-18T06:09:21.909Z,4.47
2024-02-18T06:14:25.462Z,4.37
2024-02-18T06:19:30.402Z,4.30
2024-02-18T06:24:33.929Z,4.34
2024-02-18T06:29:38.603Z,4.46
2024-02-18T06:34:43.414Z,4.73
2024-02-18T06:39:46.938Z,5.20
2024-02-18T06:44:50.219Z,5.42
2024-02-18T06:49:55.221Z,5.63
2024-02-18T06:54:58.539Z,5.75
2024-02-18T07:00:01.710Z,5.89
2024-02-18T07:05:07.132Z,6.05
2024-02-18T07:10:10.507Z,6.19
2024-02-18T07:15:13.731Z,6.36
2024-02-18T07:20:18.545Z,6.51
2024-02-18T07:25:22.027Z,6.63
2024-02-18T07:30:25.324Z,6.75
2024-02-18T07:35:30.392Z,6.68
2024-02-18T07:40:33.700Z,6.82
2024-02-18T07:45:37.061Z,6.97
2024-02-18T07:50:42.286Z,7.05
2024-02-18T07:55:45.577Z,6.96
2024-02-18T08:00:49.280Z,7.07
2024-02-18T08:05:54.275Z,7.03
2024-02-18T08:10:57.570Z,7.08
2024-02-18T08:16:00.880Z,7.22
2024-02-18T08:21:05.744Z,7.31
2024-02-18T08:26:09.497Z,7.14
2024-02-18T08:31:13.223Z,7.17
2024-02-18T08:36:18.286Z,7.27
2024-02-18T08:41:22.172Z,7.30
2024-02-18T08:46:25.445Z,7.33
2024-02-18T08:51:30.345Z,7.35
2024-02-18T08:56:33.693Z,7.41
2024-02-18T09:01:37.060Z,7.43
2024-02-18T09:06:41.862Z,7.41
2024-02-18T09:11:45.262Z,7.45
2024-02-18T09:16:49.106Z,7.47
2024-02-18T09:21:53.795Z,7.57
2024-02-18T09:26:57.070Z,7.74
2024-02-18T09:32:00.546Z,7.93
2024-02-18T09:37:06.070Z,8.13
2024-02-18T09:42:10.919Z,8.46
2024-02-18T09:47:16.012Z,8.28
2024-02-18T09:52:22.050Z,8.34
2024-02-18T09:57:25.439Z,8.49
2024-02-18T10:02:29.690Z,8.56
2024-02-18T10:07:36.684Z,8.49
2024-02-18T10:12:41.408Z,8.58
2024-02-18T10:17:44.794Z,8.44
2024-02-18T10:22:49.892Z,8.34
2024-02-18T10:27:58.095Z,8.36
2024-02-18T10:33:01.459Z,8.55
2024-02-18T10:38:11.600Z,8.64
2024-02-18T10:43:20.540Z,8.71
2024-02-18T10:48:27.809Z,8.82
2024-02-18T10:53:36.446Z,8.88
2024-02-18T10:58:51.525Z,8.94
2024-02-18T11:04:01.082Z,9.05
2024-02-18T11:09:09.914Z,9.15
2024-02-18T11:14:15.247Z,9.04
2024-02-18T11:19:20.174Z,9.05
2024-02-18T11:24:26.205Z,9.18
2024-02-18T11:29:29.607Z,9.24
2024-02-18T11:34:33.182Z,9.29
2024-02-18T11:39:42.266Z,9.19
2024-02-18T11:44:46.394Z,9.15
2024-02-18T11:49:49.850Z,9.15
2024-02-18T11:54:54.493Z,9.36
2024-02-18T11:59:58.190Z,9.34
2024-02-18T12:05:02.393Z,9.36
2024-02-18T12:10:08.235Z,9.63
2024-02-18T12:15:11.643Z,9.57
2024-02-18T12:20:14.904Z,9.58
2024-02-18T12:25:22.052Z,9.47
2024-02-18T12:30:26.328Z,9.53
2024-02-18T12:35:29.728Z,9.56
2024-02-18T12:40:35.592Z,9.40
2024-02-18T12:45:45.018Z,9.63
2024-02-18T12:51:09.629Z,9.73
2024-02-18T12:56:16.604Z,9.79
2024-02-18T13:01:20.745Z,9.65
2024-02-18T13:06:24.340Z,9.48
2024-02-18T13:11:29.328Z,9.40
2024-02-18T13:16:32.697Z,9.38
2024-02-18T13:21:36.253Z,9.31
2024-02-18T13:26:40.829Z,9.39
2024-02-18T13:31:44.362Z,9.45
2024-02-18T13:36:50.973Z,9.46
2024-02-18T13:41:57.538Z,9.52
2024-02-18T13:47:02.503Z,9.58
2024-02-18T13:52:05.919Z,9.58
2024-02-18T13:57:10.476Z,9.62
2024-02-18T14:02:13.788Z,9.63
2024-02-18T14:07:20.900Z,9.56
2024-02-18T14:12:25.470Z,9.60
2024-02-18T14:17:28.707Z,9.61
2024-02-18T14:22:32.577Z,9.47
2024-02-18T14:27:37.349Z,9.41
2024-02-18T14:32:40.833Z,9.30
2024-02-18T14:37:44.257Z,9.26
2024-02-18T14:42:50.171Z,9.23
2024-02-18T14:47:53.991Z,9.18
2024-02-18T14:52:57.228Z,9.16
2024-02-18T14:58:01.927Z,9.18
2024-02-18T15:03:05.905Z,9.13
2024-02-18T15:08:09.215Z,9.15
2024-02-18T15:13:15.547Z,9.06
2024-02-18T15:18:19.102Z,8.95
2024-02-18T15:23:22.332Z,8.81
2024-02-18T15:28:26.855Z,8.57
2024-02-18T15:33:30.561Z,8.55
2024-02-18T15:38:33.716Z,8.39
2024-02-18T15:43:39.761Z,8.22
2024-02-18T15:48:43.089Z,8.14
2024-02-18T15:53:46.546Z,8.14
2024-02-18T15:58:51.420Z,8.00
2024-02-18T16:03:54.999Z,7.88
2024-02-18T16:08:58.120Z,7.81
2024-02-18T16:14:02.547Z,7.76
2024-02-18T16:19:06.185Z,7.67
2024-02-18T16:24:09.350Z,7.60
2024-02-18T16:29:13.918Z,7.61
2024-02-18T16:34:17.148Z,7.59
2024-02-18T16:39:20.420Z,7.49
2024-02-18T16:44:25.116Z,7.52
2024-02-18T16:49:28.969Z,7.48
2024-02-18T16:54:32.643Z,7.40
2024-02-18T16:59:39.598Z,7.44
2024-02-18T17:04:42.855Z,7.44
2024-02-18T17:09:46.123Z,7.44
2024-02-18T17:14:50.687Z,7.37
2024-02-18T17:19:54.125Z,7.36
2024-02-18T17:24:57.388Z,7.38
2024-02-18T17:30:02.102Z,7.40
2024-02-18T17:35:06.112Z,7.32
2024-02-18T17:40:12.206Z,7.30
2024-02-18T17:45:18.367Z,7.31
2024-02-18T17:50:21.816Z,7.33
2024-02-18T17:55:27.449Z,7.31
2024-02-18T18:00:32.274Z,7.29
2024-02-18T18:05:36.457Z,7.29
2024-02-18T18:10:40.011Z,7.35
2024-02-18T18:15:44.769Z,7.35
2024-02-18T18:20:48.125Z,7.35
2024-02-18T18:25:51.515Z,7.38
2024-02-18T18:30:56.446Z,7.36
2024-02-18T18:36:01.212Z,7.35
2024-02-18T18:41:05.165Z,7.35
2024-02-18T18:46:10.918Z,7.38
2024-02-18T18:51:14.308Z,7.40
2024-02-18T18:56:17.765Z,7.39
2024-02-18T19:01:22.448Z,7.44
2024-02-18T19:06:25.800Z,7.41
2024-02-18T19:11:29.185Z,7.36
2024-02-18T19:16:37.102Z,7.38
2024-02-18T19:21:41.668Z,7.39
2024-02-18T19:26:45.193Z,7.35
2024-02-18T19:31:52.061Z,7.33
2024-02-18T19:36:55.333Z,7.29
2024-02-18T19:41:58.573Z,7.31
2024-02-18T19:47:03.149Z,7.38
2024-02-18T19:52:06.488Z,7.33
2024-02-18T19:57:09.744Z,7.28
2024-02-18T20:02:14.383Z,7.29
2024-02-18T20:07:17.773Z,7.26
2024-02-18T20:12:21.003Z,7.29
2024-02-18T20:17:25.689Z,7.32
2024-02-18T20:22:28.982Z,7.30
2024-02-18T20:27:34.449Z,7.26
2024-02-18T20:32:39.155Z,7.32
2024-02-18T20:37:42.345Z,7.32
2024-02-18T20:42:50.848Z,7.41
2024-02-18T20:47:56.005Z,7.38
2024-02-18T20:52:59.866Z,7.43
2024-02-18T20:58:05.388Z,7.41
2024-02-18T21:03:10.818Z,7.43
2024-02-18T21:08:14.683Z,7.47
2024-02-18T21:13:18.156Z,7.66
2024-02-18T21:18:23.398Z,7.83
2024-02-18T21:23:26.990Z,7.96
2024-02-18T21:28:30.331Z,8.15
2024-02-18T21:33:35.228Z,8.38
2024-02-18T21:38:38.757Z,8.53
2024-02-18T21:43:42.348Z,8.69
2024-02-18T21:48:47.212Z,8.68
2024-02-18T21:53:50.704Z,8.81
2024-02-18T21:58:54.011Z,8.94
2024-02-18T22:03:58.818Z,8.96
2024-02-18T22:09:02.424Z,8.93
2024-02-18T22:14:05.665Z,8.99
2024-02-18T22:19:10.833Z,8.90
2024-02-18T22:24:14.191Z,8.73
2024-02-18T22:29:17.406Z,8.64
2024-02-18T22:34:22.109Z,8.43
2024-02-18T22:39:25.344Z,8.25
2024-02-18T22:44:28.680Z,8.15
2024-02-18T22:49:33.589Z,8.15
2024-02-18T22:54:37.022Z,8.08
2024-02-18T22:59:40.266Z,8.10
2024-02-18T23:04:44.815Z,8.10
2024-02-18T23:09:47.989Z,8.10
2024-02-18T23:14:51.445Z,8.17
2024-02-18T23:19:56.294Z,8.25
2024-02-18T23:24:59.932Z,8.46
2024-02-18T23:30:03.510Z,8.73
2024-02-18T23:35:11.176Z,8.87
2024-02-18T23:40:15.556Z,8.98
2024-02-18T23:45:18.945Z,9.04
2024-02-18T23:50:24.710Z,9.14
2024-02-18T23:55:28.072Z,9.07
